createdAt,value
2019-04-16T00:00:58.193Z,100870
2019-04-16T00:01:57.231Z,100867
2019-04-16T00:02:57.121Z,100869
2019-04-16T00:03:57.204Z,100866
2019-04-16T00:04:57.645Z,100870
2019-04-16T00:05:58.878Z,100867
2019-04-16T00:06:57.253Z,100868
2019-04-16T00:07:57.325Z,100868
2019-04-16T00:08:58.495Z,100869
2019-04-16T00:09:57.474Z,100867
2019-04-16T00:10:57.589Z,100861
2019-04-16T00:11:57.777Z,100859
2019-04-16T00:12:57.764Z,100858
2019-04-16T00:14:02.944Z,100863
2019-04-16T00:14:57.781Z,100860
2019-04-16T00:15:58.831Z,100859
2019-04-16T00:16:57.780Z,100857
2019-04-16T00:17:57.872Z,100857
2019-04-16T00:19:01.011Z,100855
2019-04-16T00:19:57.944Z,100856
2019-04-16T00:20:58.070Z,100851
2019-04-16T00:21:59.089Z,100851
2019-04-16T00:22:59.276Z,100853
2019-04-16T00:23:58.185Z,100854
2019-04-16T00:24:58.258Z,100852
2019-04-16T00:25:58.285Z,100849
2019-04-16T00:26:59.424Z,100850
2019-04-16T00:27:59.891Z,100849
2019-04-16T00:29:01.560Z,100850
2019-04-16T00:29:58.352Z,100852
2019-04-16T00:30:58.652Z,100845
2019-04-16T00:31:58.584Z,100845
2019-04-16T00:32:59.596Z,100848
2019-04-16T00:33:59.634Z,100844
2019-04-16T00:34:58.724Z,100848
2019-04-16T00:35:58.838Z,100845
2019-04-16T00:36:58.952Z,100842
2019-04-16T00:37:59.101Z,100849
2019-04-16T00:38:59.124Z,100848
2019-04-16T00:39:59.183Z,100849
2019-04-16T00:41:01.069Z,100842
2019-04-16T00:41:59.254Z,100841
2019-04-16T00:42:59.298Z,100841
2019-04-16T00:43:59.344Z,100843
2019-04-16T00:44:59.360Z,100840
2019-04-16T00:45:59.474Z,100838
2019-04-16T00:47:00.513Z,100831
2019-04-16T00:47:59.536Z,100837
2019-04-16T00:48:59.517Z,100832
2019-04-16T00:49:59.740Z,100832
2019-04-16T00:50:59.684Z,100832
2019-04-16T00:51:59.712Z,100838
2019-04-16T00:52:59.694Z,100832
2019-04-16T00:54:00.756Z,100833
2019-04-16T00:55:00.879Z,100829
2019-04-16T00:56:00.815Z,100824
2019-04-16T00:57:00.000Z,100830
2019-04-16T00:57:59.896Z,100825
2019-04-16T00:58:59.894Z,100829
2019-04-16T00:59:59.918Z,100828
2019-04-16T01:01:00.078Z,100826
2019-04-16T01:02:00.154Z,100827
2019-04-16T01:03:00.261Z,100826
2019-04-16T01:04:00.157Z,100829
2019-04-16T01:05:00.192Z,100826
2019-04-16T01:06:00.288Z,100826
2019-04-16T01:07:00.279Z,100826
2019-04-16T01:08:00.315Z,100823
2019-04-16T01:09:00.398Z,100826
2019-04-16T01:10:00.492Z,100823
2019-04-16T01:11:00.407Z,100822
2019-04-16T01:12:00.658Z,100820
2019-04-16T01:13:00.527Z,100821
2019-04-16T01:14:00.565Z,100820
2019-04-16T01:15:01.017Z,100820
2019-04-16T01:16:03.392Z,100818
2019-04-16T01:17:03.804Z,100819
2019-04-16T01:18:00.784Z,100817
2019-04-16T01:19:00.931Z,100822
2019-04-16T01:20:02.038Z,100814
2019-04-16T01:21:02.174Z,100816
2019-04-16T01:22:02.185Z,100816
2019-04-16T01:23:01.096Z,100812
2019-04-16T01:24:01.151Z,100813
2019-04-16T01:25:01.202Z,100812
2019-04-16T01:26:01.253Z,100809
2019-04-16T01:27:01.211Z,100813
2019-04-16T01:28:01.343Z,100810
2019-04-16T01:29:03.659Z,100811
2019-04-16T01:30:04.842Z,100811
2019-04-16T01:31:01.490Z,100807
2019-04-16T01:32:01.662Z,100807
2019-04-16T01:33:02.728Z,100805
2019-04-16T01:34:02.640Z,100808
2019-04-16T01:35:01.609Z,100806
2019-04-16T01:36:01.629Z,100805
2019-04-16T01:37:01.654Z,100810
2019-04-16T01:38:01.824Z,100806
2019-04-16T01:40:02.688Z,100805
2019-04-16T01:41:01.673Z,100805
2019-04-16T01:42:01.691Z,100807
2019-04-16T01:43:01.711Z,100806
2019-04-16T01:44:01.765Z,100798
2019-04-16T01:45:01.828Z,100803
2019-04-16T01:46:02.412Z,100802
2019-04-16T01:47:04.111Z,100800
2019-04-16T01:48:06.631Z,100798
2019-04-16T01:49:02.126Z,100800
2019-04-16T01:50:03.092Z,100793
2019-04-16T01:51:03.118Z,100793
2019-04-16T01:52:03.222Z,100788
2019-04-16T01:53:02.276Z,100792
2019-04-16T01:54:02.333Z,100784
2019-04-16T01:55:02.379Z,100786
2019-04-16T01:56:02.422Z,100783
2019-04-16T01:57:02.437Z,100784
2019-04-16T01:58:03.629Z,100786
2019-04-16T01:59:05.446Z,100787
2019-04-16T02:00:06.696Z,100786
2019-04-16T02:01:02.603Z,100787
2019-04-16T02:02:03.801Z,100788
2019-04-16T02:03:03.780Z,100785
2019-04-16T02:04:02.836Z,100782
2019-04-16T02:05:02.966Z,100787
2019-04-16T02:06:03.007Z,100787
2019-04-16T02:07:03.117Z,100784
2019-04-16T02:08:03.272Z,100787
2019-04-16T02:09:03.352Z,100785
2019-04-16T02:10:07.232Z,100788
2019-04-16T02:11:03.321Z,100782
2019-04-16T02:12:03.401Z,100784
2019-04-16T02:13:04.431Z,100785
2019-04-16T02:14:04.549Z,100783
2019-04-16T02:15:04.479Z,100783
2019-04-16T02:16:03.795Z,100785
2019-04-16T02:17:03.674Z,100782
2019-04-16T02:18:03.751Z,100784
2019-04-16T02:19:03.752Z,100781
2019-04-16T02:20:05.800Z,100782
2019-04-16T02:21:03.773Z,100781
2019-04-16T02:22:03.859Z,100780
2019-04-16T02:23:04.916Z,100780
2019-04-16T02:24:04.981Z,100784
2019-04-16T02:25:03.905Z,100782
2019-04-16T02:26:03.940Z,100780
2019-04-16T02:27:03.946Z,100781
2019-04-16T02:28:04.051Z,100775
2019-04-16T02:29:05.064Z,100777
2019-04-16T02:30:04.992Z,100775
2019-04-16T02:31:04.278Z,100771
2019-04-16T02:32:05.313Z,100775
2019-04-16T02:33:04.214Z,100781
2019-04-16T02:34:04.320Z,100782
2019-04-16T02:35:04.255Z,100780
2019-04-16T02:36:04.270Z,100781
2019-04-16T02:37:04.326Z,100776
2019-04-16T02:38:10.344Z,100776
2019-04-16T02:39:05.412Z,100773
2019-04-16T02:40:04.457Z,100780
2019-04-16T02:41:05.407Z,100773
2019-04-16T02:42:04.410Z,100771
2019-04-16T02:43:06.967Z,100771
2019-04-16T02:44:04.503Z,100774
2019-04-16T02:45:05.550Z,100776
2019-04-16T02:46:04.651Z,100774
2019-04-16T02:47:07.185Z,100774
2019-04-16T02:48:04.808Z,100775
2019-04-16T02:49:05.782Z,100775
2019-04-16T02:50:04.848Z,100775
2019-04-16T02:51:07.525Z,100775
2019-04-16T02:52:04.799Z,100773
2019-04-16T02:53:06.046Z,100771
2019-04-16T02:54:04.979Z,100770
2019-04-16T02:55:08.930Z,100772
2019-04-16T02:56:05.097Z,100770
2019-04-16T02:57:06.182Z,100769
2019-04-16T02:58:05.150Z,100770
2019-04-16T03:00:05.211Z,100765
2019-04-16T03:01:06.226Z,100765
2019-04-16T03:02:05.264Z,100763
2019-04-16T03:03:05.338Z,100767
2019-04-16T03:04:05.347Z,100766
2019-04-16T03:05:05.398Z,100769
2019-04-16T03:06:05.497Z,100765
2019-04-16T03:07:05.572Z,100763
2019-04-16T03:08:05.915Z,100762
2019-04-16T03:09:08.502Z,100764
2019-04-16T03:10:05.696Z,100762
2019-04-16T03:11:05.774Z,100758
2019-04-16T03:12:06.778Z,100763
2019-04-16T03:13:06.953Z,100759
2019-04-16T03:14:05.976Z,100758
2019-04-16T03:15:06.112Z,100757
2019-04-16T03:16:07.290Z,100757
2019-04-16T03:17:06.758Z,100755
2019-04-16T03:18:06.317Z,100752
2019-04-16T03:19:07.381Z,100751
2019-04-16T03:20:07.352Z,100751
2019-04-16T03:21:06.529Z,100749
2019-04-16T03:22:06.393Z,100752
2019-04-16T03:23:06.749Z,100755
2019-04-16T03:24:09.038Z,100754
2019-04-16T03:25:09.499Z,100755
2019-04-16T03:26:06.636Z,100750
2019-04-16T03:27:07.621Z,100746
2019-04-16T03:28:06.636Z,100748
2019-04-16T03:29:06.800Z,100748
2019-04-16T03:30:06.883Z,100748
2019-04-16T03:31:09.007Z,100744
2019-04-16T03:32:12.670Z,100745
2019-04-16T03:33:12.259Z,100745
2019-04-16T03:34:08.198Z,100746
2019-04-16T03:35:08.191Z,100746
2019-04-16T03:36:07.186Z,100742
2019-04-16T03:37:07.252Z,100747
2019-04-16T03:38:07.320Z,100740
2019-04-16T03:39:11.931Z,100742
2019-04-16T03:41:08.555Z,100746
2019-04-16T03:42:07.492Z,100742
2019-04-16T03:43:07.446Z,100742
2019-04-16T03:44:07.538Z,100740
2019-04-16T03:45:08.896Z,100742
2019-04-16T03:46:12.039Z,100738
2019-04-16T03:47:07.878Z,100743
2019-04-16T03:48:08.870Z,100739
2019-04-16T03:49:08.006Z,100733
2019-04-16T03:50:08.338Z,100735
2019-04-16T03:51:08.286Z,100736
2019-04-16T03:52:09.521Z,100732
2019-04-16T03:53:08.482Z,100731
2019-04-16T03:54:09.452Z,100729
2019-04-16T03:55:09.772Z,100735
2019-04-16T03:56:08.493Z,100733
2019-04-16T03:57:08.630Z,100729
2019-04-16T03:58:08.649Z,100728
2019-04-16T03:59:11.566Z,100731
2019-04-16T04:00:12.186Z,100735
2019-04-16T04:01:08.799Z,100734
2019-04-16T04:02:08.919Z,100734
2019-04-16T04:03:10.017Z,100726
2019-04-16T04:04:08.947Z,100724
2019-04-16T04:05:09.033Z,100726
2019-04-16T04:06:09.086Z,100727
2019-04-16T04:07:11.978Z,100724
2019-04-16T04:08:09.142Z,100723
2019-04-16T04:09:09.216Z,100724
2019-04-16T04:10:10.213Z,100722
2019-04-16T04:11:10.784Z,100728
2019-04-16T04:12:12.722Z,100721
2019-04-16T04:13:09.579Z,100726
2019-04-16T04:14:10.527Z,100721
2019-04-16T04:15:10.654Z,100723
2019-04-16T04:16:09.809Z,100722
2019-04-16T04:17:09.708Z,100720
2019-04-16T04:18:11.545Z,100723
2019-04-16T04:19:13.982Z,100725
2019-04-16T04:20:09.941Z,100725
2019-04-16T04:21:11.023Z,100727
2019-04-16T04:22:11.058Z,100725
2019-04-16T04:23:10.285Z,100733
2019-04-16T04:24:10.280Z,100724
2019-04-16T04:25:10.311Z,100727
2019-04-16T04:26:10.427Z,100726
2019-04-16T04:27:13.915Z,100727
2019-04-16T04:28:10.465Z,100730
2019-04-16T04:29:11.443Z,100732
2019-04-16T04:30:11.732Z,100734
2019-04-16T04:31:10.653Z,100731
2019-04-16T04:32:10.716Z,100734
2019-04-16T04:33:10.743Z,100729
2019-04-16T04:34:13.993Z,100732
2019-04-16T04:35:11.080Z,100730
2019-04-16T04:36:12.002Z,100730
2019-04-16T04:37:12.054Z,100735
2019-04-16T04:38:11.342Z,100736
2019-04-16T04:39:14.864Z,100734
2019-04-16T04:40:12.724Z,100736
2019-04-16T04:41:11.526Z,100732
2019-04-16T04:42:12.857Z,100738
2019-04-16T04:43:11.648Z,100737
2019-04-16T04:44:11.751Z,100737
2019-04-16T04:45:11.598Z,100740
2019-04-16T04:46:14.335Z,100741
2019-04-16T04:47:11.761Z,100735
2019-04-16T04:48:12.190Z,100737
2019-04-16T04:49:13.169Z,100734
2019-04-16T04:50:11.987Z,100729
2019-04-16T04:51:11.983Z,100730
2019-04-16T04:52:14.435Z,100730
2019-04-16T04:53:12.222Z,100728
2019-04-16T04:54:13.140Z,100730
2019-04-16T04:55:13.294Z,100733
2019-04-16T04:56:13.519Z,100728
2019-04-16T04:57:12.445Z,100728
2019-04-16T04:58:12.667Z,100728
2019-04-16T04:59:12.439Z,100732
2019-04-16T05:00:12.543Z,100728
2019-04-16T05:01:13.830Z,100731
2019-04-16T05:02:14.249Z,100726
2019-04-16T05:03:15.471Z,100726
2019-04-16T05:04:12.747Z,100726
2019-04-16T05:05:12.887Z,100728
2019-04-16T05:06:13.891Z,100725
2019-04-16T05:07:13.957Z,100726
2019-04-16T05:08:13.018Z,100731
2019-04-16T05:09:13.391Z,100729
2019-04-16T05:10:13.129Z,100730
2019-04-16T05:11:15.444Z,100733
2019-04-16T05:12:13.162Z,100728
2019-04-16T05:13:13.114Z,100730
2019-04-16T05:14:14.201Z,100733
2019-04-16T05:15:14.421Z,100733
2019-04-16T05:16:13.305Z,100730
2019-04-16T05:17:13.426Z,100736
2019-04-16T05:18:13.509Z,100729
2019-04-16T05:19:15.122Z,100733
2019-04-16T05:20:15.345Z,100732
2019-04-16T05:21:17.543Z,100732
2019-04-16T05:22:14.319Z,100729
2019-04-16T05:23:13.792Z,100731
2019-04-16T05:24:14.861Z,100736
2019-04-16T05:25:13.928Z,100735
2019-04-16T05:26:14.133Z,100737
2019-04-16T05:27:13.981Z,100735
2019-04-16T05:28:13.946Z,100733
2019-04-16T05:29:16.963Z,100735
2019-04-16T05:30:14.143Z,100740
2019-04-16T05:31:14.177Z,100737
2019-04-16T05:32:15.104Z,100740
2019-04-16T05:33:15.351Z,100742
2019-04-16T05:34:17.122Z,100742
2019-04-16T05:35:14.393Z,100741
2019-04-16T05:36:15.388Z,100743
2019-04-16T05:37:16.346Z,100740
2019-04-16T05:38:14.841Z,100746
2019-04-16T05:39:15.840Z,100748
2019-04-16T05:40:15.880Z,100752
2019-04-16T05:41:20.201Z,100752
2019-04-16T05:42:14.995Z,100744
2019-04-16T05:43:15.981Z,100745
2019-04-16T05:44:16.014Z,100749
2019-04-16T05:45:16.056Z,100748
2019-04-16T05:46:15.102Z,100749
2019-04-16T05:47:17.800Z,100752
2019-04-16T05:48:15.231Z,100751
2019-04-16T05:49:15.288Z,100753
2019-04-16T05:50:16.248Z,100747
2019-04-16T05:51:16.355Z,100749
2019-04-16T05:52:16.434Z,100747
2019-04-16T05:53:15.598Z,100750
2019-04-16T05:54:15.469Z,100752
2019-04-16T05:55:17.579Z,100748
2019-04-16T05:56:15.637Z,100751
2019-04-16T05:57:17.027Z,100752
2019-04-16T05:58:16.784Z,100752
2019-04-16T05:59:16.939Z,100751
2019-04-16T06:00:15.971Z,100752
2019-04-16T06:01:17.349Z,100749
2019-04-16T06:02:18.360Z,100747
2019-04-16T06:03:20.536Z,100746
2019-04-16T06:04:16.448Z,100745
2019-04-16T06:05:17.224Z,100744
2019-04-16T06:06:17.284Z,100746
2019-04-16T06:07:20.739Z,100750
2019-04-16T06:08:16.877Z,100753
2019-04-16T06:09:16.690Z,100751
2019-04-16T06:10:17.662Z,100747
2019-04-16T06:11:28.013Z,100752
2019-04-16T06:12:17.955Z,100750
2019-04-16T06:13:16.631Z,100752
2019-04-16T06:14:18.567Z,100752
2019-04-16T06:15:21.062Z,100752
2019-04-16T06:16:16.957Z,100753
2019-04-16T06:17:16.712Z,100751
2019-04-16T06:18:21.731Z,100759
2019-04-16T06:19:18.555Z,100759
2019-04-16T06:20:20.462Z,100761
2019-04-16T06:21:17.208Z,100757
2019-04-16T06:22:18.227Z,100759
2019-04-16T06:23:18.862Z,100762
2019-04-16T06:24:18.077Z,100759
2019-04-16T06:25:17.664Z,100756
2019-04-16T06:26:17.393Z,100763
2019-04-16T06:27:17.366Z,100761
2019-04-16T06:28:17.263Z,100763
2019-04-16T06:29:17.370Z,100760
2019-04-16T06:30:18.728Z,100762
2019-04-16T06:31:19.314Z,100762
2019-04-16T06:32:18.676Z,100764
2019-04-16T06:33:18.769Z,100764
2019-04-16T06:34:18.655Z,100761
2019-04-16T06:35:17.885Z,100757
2019-04-16T06:36:18.140Z,100755
2019-04-16T06:37:21.091Z,100755
2019-04-16T06:38:19.323Z,100755
2019-04-16T06:39:18.332Z,100755
2019-04-16T06:40:19.295Z,100753
2019-04-16T06:41:19.156Z,100750
2019-04-16T06:42:22.237Z,100753
2019-04-16T06:43:18.195Z,100751
2019-04-16T06:44:18.761Z,100747
2019-04-16T06:45:19.367Z,100748
2019-04-16T06:46:18.339Z,100745
2019-04-16T06:47:18.357Z,100746
2019-04-16T06:48:18.500Z,100750
2019-04-16T06:49:20.033Z,100744
2019-04-16T06:50:30.069Z,100743
2019-04-16T06:51:19.743Z,100745
2019-04-16T06:52:18.651Z,100742
2019-04-16T06:53:19.428Z,100741
2019-04-16T06:54:19.342Z,100741
2019-04-16T06:55:19.321Z,100738
2019-04-16T06:56:20.180Z,100740
2019-04-16T06:57:18.707Z,100736
2019-04-16T06:58:18.576Z,100726
2019-04-16T06:59:19.346Z,100737
2019-04-16T07:00:20.071Z,100733
2019-04-16T07:01:22.191Z,100733
2019-04-16T07:02:18.819Z,100731
2019-04-16T07:03:18.636Z,100731
2019-04-16T07:04:19.206Z,100735
2019-04-16T07:05:19.909Z,100732
2019-04-16T07:06:21.267Z,100726
2019-04-16T07:07:21.659Z,100731
2019-04-16T07:08:21.558Z,100733
2019-04-16T07:09:23.254Z,100731
2019-04-16T07:10:19.998Z,100731
2019-04-16T07:11:20.412Z,100729
2019-04-16T07:12:18.961Z,100731
2019-04-16T07:13:19.055Z,100727
2019-04-16T07:14:19.184Z,100730
2019-04-16T07:15:22.033Z,100725
2019-04-16T07:16:20.139Z,100723
2019-04-16T07:17:19.397Z,100724
2019-04-16T07:18:21.006Z,100720
2019-04-16T07:19:20.338Z,100720
2019-04-16T07:20:19.329Z,100714
2019-04-16T07:21:34.541Z,100719
2019-04-16T07:22:36.275Z,100717
2019-04-16T07:23:34.350Z,100710
2019-04-16T07:24:36.976Z,100711
2019-04-16T07:25:39.377Z,100714
2019-04-16T07:26:38.540Z,100718
2019-04-16T07:29:57.090Z,100714
2019-04-16T07:30:57.256Z,100717
2019-04-16T07:31:58.019Z,100714
2019-04-16T07:33:00.228Z,100716
2019-04-16T07:33:57.767Z,100714
2019-04-16T07:34:57.616Z,100716
2019-04-16T07:35:58.363Z,100711
2019-04-16T07:37:00.407Z,100714
2019-04-16T07:37:58.221Z,100716
2019-04-16T07:39:00.676Z,100712
2019-04-16T07:39:58.177Z,100712
2019-04-16T07:40:59.285Z,100711
2019-04-16T07:43:03.146Z,100713
2019-04-16T07:43:58.112Z,100709
2019-04-16T07:44:58.573Z,100705
2019-04-16T07:46:01.257Z,100702
2019-04-16T07:47:00.715Z,100707
2019-04-16T07:48:05.587Z,100707
2019-04-16T07:48:58.799Z,100701
2019-04-16T07:49:59.753Z,100702
2019-04-16T07:51:01.508Z,100702
2019-04-16T07:52:11.636Z,100699
2019-04-16T07:52:59.387Z,100699
2019-04-16T07:54:02.092Z,100696
2019-04-16T07:55:00.751Z,100700
2019-04-16T07:56:01.011Z,100701
2019-04-16T07:57:01.395Z,100696
2019-04-16T07:57:59.744Z,100699
2019-04-16T07:59:01.208Z,100695
2019-04-16T08:00:01.812Z,100688
2019-04-16T08:00:59.186Z,100693
2019-04-16T08:01:59.844Z,100693
2019-04-16T08:02:59.766Z,100696
2019-04-16T08:04:00.875Z,100693
2019-04-16T08:04:58.273Z,100687
2019-04-16T08:05:59.655Z,100695
2019-04-16T08:07:00.841Z,100694
2019-04-16T08:07:58.163Z,100693
2019-04-16T08:08:59.272Z,100687
2019-04-16T08:10:00.971Z,100691
2019-04-16T08:11:03.107Z,100694
2019-04-16T08:11:59.653Z,100689
2019-04-16T08:13:01.510Z,100693
2019-04-16T08:14:00.063Z,100693
2019-04-16T08:15:12.319Z,100691
2019-04-16T08:16:00.464Z,100690
2019-04-16T08:17:02.322Z,100697
2019-04-16T08:17:59.673Z,100692
2019-04-16T08:18:58.718Z,100695
2019-04-16T08:19:58.764Z,100692
2019-04-16T08:21:03.334Z,100696
2019-04-16T08:21:59.929Z,100697
2019-04-16T08:22:59.452Z,100696
2019-04-16T08:24:00.115Z,100698
2019-04-16T08:25:03.171Z,100694
2019-04-16T08:26:03.012Z,100701
2019-04-16T08:26:59.812Z,100700
2019-04-16T08:28:00.642Z,100700
2019-04-16T08:29:00.437Z,100695
2019-04-16T08:30:03.316Z,100693
2019-04-16T08:31:02.739Z,100695
2019-04-16T08:32:00.025Z,100694
2019-04-16T08:33:00.290Z,100695
2019-04-16T08:34:00.281Z,100697
2019-04-16T08:35:01.449Z,100697
2019-04-16T08:35:59.117Z,100696
2019-04-16T08:36:59.970Z,100696
2019-04-16T08:37:59.020Z,100698
2019-04-16T08:39:05.473Z,100697
2019-04-16T08:39:59.690Z,100698
2019-04-16T08:41:00.368Z,100697
2019-04-16T08:42:01.568Z,100691
2019-04-16T08:43:00.280Z,100692
2019-04-16T08:44:02.632Z,100691
2019-04-16T08:45:07.170Z,100687
2019-04-16T08:46:11.006Z,100689
2019-04-16T08:47:00.665Z,100685
2019-04-16T08:48:01.922Z,100683
2019-04-16T08:49:02.357Z,100685
2019-04-16T08:50:01.190Z,100685
2019-04-16T08:51:04.244Z,100687
2019-04-16T08:52:02.538Z,100685
2019-04-16T08:53:01.331Z,100684
2019-04-16T08:54:00.834Z,100684
2019-04-16T08:55:03.710Z,100680
2019-04-16T08:56:04.533Z,100677
2019-04-16T08:57:00.173Z,100679
2019-04-16T08:58:00.081Z,100677
2019-04-16T08:59:01.522Z,100675
2019-04-16T09:00:00.086Z,100677
2019-04-16T09:01:00.763Z,100677
2019-04-16T09:02:01.074Z,100691
2019-04-16T09:03:02.308Z,100675
2019-04-16T09:04:02.374Z,100674
2019-04-16T09:05:06.210Z,100677
2019-04-16T09:06:25.039Z,100674
2019-04-16T09:07:11.037Z,100678
2019-04-16T09:08:11.247Z,100676
2019-04-16T09:09:12.202Z,100674
2019-04-16T09:10:16.124Z,100674
2019-04-16T09:11:03.233Z,100676
2019-04-16T09:12:01.552Z,100671
2019-04-16T09:13:03.651Z,100675
2019-04-16T09:14:00.289Z,100668
2019-04-16T09:14:59.817Z,100674
2019-04-16T09:15:59.834Z,100672
2019-04-16T09:17:01.180Z,100676
2019-04-16T09:18:00.149Z,100677
2019-04-16T09:18:59.636Z,100671
2019-04-16T09:20:01.280Z,100673
2019-04-16T09:21:01.179Z,100669
2019-04-16T09:22:03.886Z,100672
2019-04-16T09:23:02.138Z,100668
2019-04-16T09:24:06.640Z,100670
2019-04-16T09:25:02.364Z,100668
2019-04-16T09:26:12.844Z,100666
2019-04-16T09:27:12.358Z,100667
2019-04-16T09:28:01.864Z,100666
2019-04-16T09:29:08.086Z,100664
2019-04-16T09:30:00.145Z,100662
2019-04-16T09:31:02.372Z,100666
2019-04-16T09:32:00.289Z,100666
2019-04-16T09:33:01.966Z,100665
2019-04-16T09:34:06.707Z,100664
2019-04-16T09:36:01.520Z,100663
2019-04-16T09:38:57.709Z,100658
2019-04-16T09:39:24.627Z,100658
2019-04-16T09:40:23.386Z,100656
2019-04-16T09:41:19.389Z,100657
2019-04-16T09:42:30.855Z,100656
2019-04-16T09:43:24.703Z,100661
2019-04-16T09:44:16.762Z,100653
2019-04-16T09:45:17.777Z,100653
2019-04-16T09:46:21.804Z,100654
2019-04-16T09:47:17.128Z,100648
2019-04-16T09:48:17.588Z,100650
2019-04-16T09:49:16.620Z,100643
2019-04-16T09:50:16.038Z,100650
2019-04-16T09:51:20.126Z,100648
2019-04-16T09:52:19.661Z,100647
2019-04-16T09:53:16.017Z,100646
2019-04-16T09:54:17.026Z,100643
2019-04-16T09:55:18.847Z,100640
2019-04-16T09:56:16.611Z,100636
2019-04-16T09:57:18.363Z,100640
2019-04-16T09:58:21.168Z,100636
2019-04-16T09:59:20.867Z,100634
2019-04-16T10:00:16.790Z,100636
2019-04-16T10:01:16.616Z,100628
2019-04-16T10:02:16.657Z,100624
2019-04-16T10:03:17.462Z,100628
2019-04-16T10:04:17.444Z,100625
2019-04-16T10:05:16.738Z,100616
2019-04-16T10:06:17.648Z,100624
2019-04-16T10:07:16.301Z,100615
2019-04-16T10:08:17.061Z,100619
2019-04-16T10:09:19.710Z,100620
2019-04-16T10:10:16.860Z,100614
2019-04-16T10:11:18.858Z,100617
2019-04-16T10:12:16.219Z,100618
2019-04-16T10:13:29.345Z,100613
2019-04-16T10:14:17.294Z,100616
2019-04-16T10:15:16.233Z,100614
2019-04-16T10:16:16.570Z,100613
2019-04-16T10:17:17.287Z,100611
2019-04-16T10:18:16.424Z,100610
2019-04-16T10:19:16.762Z,100611
2019-04-16T10:20:16.352Z,100610
2019-04-16T10:21:19.606Z,100613
2019-04-16T10:22:17.768Z,100610
2019-04-16T10:23:16.368Z,100612
2019-04-16T10:24:16.530Z,100611
2019-04-16T10:25:16.376Z,100618
2019-04-16T10:26:16.859Z,100611
2019-04-16T10:27:16.576Z,100614
2019-04-16T10:28:17.550Z,100608
2019-04-16T10:29:16.921Z,100614
2019-04-16T10:30:17.047Z,100607
2019-04-16T10:31:16.672Z,100611
2019-04-16T10:32:18.037Z,100607
2019-04-16T10:33:16.803Z,100604
2019-04-16T10:34:18.128Z,100607
2019-04-16T10:35:17.029Z,100603
2019-04-16T10:36:16.607Z,100601
2019-04-16T10:37:17.420Z,100600
2019-04-16T10:38:16.900Z,100601
2019-04-16T10:39:17.092Z,100601
2019-04-16T10:40:17.533Z,100593
2019-04-16T10:41:16.834Z,100597
2019-04-16T10:42:16.588Z,100598
2019-04-16T10:43:16.930Z,100588
2019-04-16T10:44:28.810Z,100587
2019-04-16T10:46:47.586Z,100588
2019-04-16T10:48:47.274Z,100584
2019-04-16T10:49:48.109Z,100585
2019-04-16T10:50:48.219Z,100590
2019-04-16T10:51:46.797Z,100587
2019-04-16T10:52:47.007Z,100582
2019-04-16T10:53:47.051Z,100583
2019-04-16T10:54:49.565Z,100580
2019-04-16T10:55:46.916Z,100584
2019-04-16T10:57:56.826Z,100581
2019-04-16T10:58:56.802Z,100580
2019-04-16T10:59:56.092Z,100589
2019-04-16T11:00:56.262Z,100586
2019-04-16T11:06:38.606Z,100576
2019-04-16T11:07:36.718Z,100574
2019-04-16T11:08:36.863Z,100573
2019-04-16T11:09:36.868Z,100573
2019-04-16T11:10:36.589Z,100576
2019-04-16T11:11:38.478Z,100574
2019-04-16T11:12:38.014Z,100575
2019-04-16T11:13:37.318Z,100570
2019-04-16T11:14:38.126Z,100575
2019-04-16T11:16:18.981Z,100575
2019-04-16T11:17:08.047Z,100572
2019-04-16T11:18:07.132Z,100573
2019-04-16T11:19:06.965Z,100570
2019-04-16T11:20:09.407Z,100571
2019-04-16T11:21:06.734Z,100566
2019-04-16T11:22:08.892Z,100571
2019-04-16T11:23:07.773Z,100570
2019-04-16T11:24:06.823Z,100569
2019-04-16T11:25:06.858Z,100573
2019-04-16T11:26:06.531Z,100568
2019-04-16T11:27:07.903Z,100570
2019-04-16T11:28:07.617Z,100567
2019-04-16T11:29:06.802Z,100566
2019-04-16T11:30:06.793Z,100570
2019-04-16T11:31:08.293Z,100559
2019-04-16T11:32:06.941Z,100557
2019-04-16T11:33:07.314Z,100561
2019-04-16T11:34:07.405Z,100551
2019-04-16T11:35:06.776Z,100556
2019-04-16T11:37:09.440Z,100553
2019-04-16T11:38:06.635Z,100553
2019-04-16T11:39:07.998Z,100553
2019-04-16T11:40:07.911Z,100555
2019-04-16T11:41:44.436Z,100556
2019-04-16T11:42:07.152Z,100551
2019-04-16T11:43:07.052Z,100546
2019-04-16T11:44:15.414Z,100547
2019-04-16T11:45:07.458Z,100545
2019-04-16T11:46:06.907Z,100547
2019-04-16T11:47:07.657Z,100541
2019-04-16T11:48:06.734Z,100543
2019-04-16T11:49:07.572Z,100546
2019-04-16T11:50:08.807Z,100544
2019-04-16T11:51:07.354Z,100546
2019-04-16T11:52:07.271Z,100544
2019-04-16T11:53:07.553Z,100547
2019-04-16T11:54:06.917Z,100548
2019-04-16T11:55:06.788Z,100549
2019-04-16T11:56:06.444Z,100548
2019-04-16T11:57:06.661Z,100555
2019-04-16T11:58:06.242Z,100556
2019-04-16T11:59:06.356Z,100548
2019-04-16T12:00:08.370Z,100551
2019-04-16T12:01:07.910Z,100556
2019-04-16T12:02:06.504Z,100551
2019-04-16T12:03:07.785Z,100553
2019-04-16T12:04:06.589Z,100556
2019-04-16T12:05:07.487Z,100554
2019-04-16T12:06:07.931Z,100551
2019-04-16T12:07:07.187Z,100555
2019-04-16T12:08:06.239Z,100556
2019-04-16T12:09:06.152Z,100560
2019-04-16T12:10:06.199Z,100546
2019-04-16T12:11:05.956Z,100550
2019-04-16T12:12:06.086Z,100549
2019-04-16T12:13:05.996Z,100554
2019-04-16T12:14:08.252Z,100554
2019-04-16T12:15:07.271Z,100547
2019-04-16T12:16:05.934Z,100548
2019-04-16T12:17:06.058Z,100543
2019-04-16T12:18:05.793Z,100548
2019-04-16T12:19:05.824Z,100543
2019-04-16T12:20:05.751Z,100545
2019-04-16T12:21:05.689Z,100540
2019-04-16T12:22:06.063Z,100554
2019-04-16T12:23:06.029Z,100550
2019-04-16T12:24:05.636Z,100550
2019-04-16T12:25:05.919Z,100548
2019-04-16T12:26:08.828Z,100550
2019-04-16T12:27:06.912Z,100550
2019-04-16T12:28:07.167Z,100550
2019-04-16T12:29:06.596Z,100550
2019-04-16T12:30:05.703Z,100551
2019-04-16T12:31:05.578Z,100556
2019-04-16T12:32:06.881Z,100551
2019-04-16T12:33:08.506Z,100544
2019-04-16T12:34:05.926Z,100550
2019-04-16T12:35:05.416Z,100547
2019-04-16T12:36:05.512Z,100549
2019-04-16T12:37:05.555Z,100549
2019-04-16T12:38:05.351Z,100548
2019-04-16T12:39:06.515Z,100542
2019-04-16T12:40:06.201Z,100538
2019-04-16T12:41:06.193Z,100534
2019-04-16T12:42:05.743Z,100526
2019-04-16T12:43:06.318Z,100540
2019-04-16T12:44:07.127Z,100550
2019-04-16T12:45:08.487Z,100542
2019-04-16T12:46:05.521Z,100548
2019-04-16T12:47:05.322Z,100549
2019-04-16T12:48:05.641Z,100545